createdAt,value
2019-02-19T00:00:55.713Z,79.80
2019-02-19T00:03:23.631Z,80.20
2019-02-19T00:05:51.551Z,80.10
2019-02-19T00:08:38.889Z,79.30
2019-02-19T00:11:06.739Z,79.60
2019-02-19T00:13:54.116Z,79.40
2019-02-19T00:16:34.479Z,79.20
2019-02-19T00:19:21.822Z,78.40
2019-02-19T00:22:02.745Z,78.60
2019-02-19T00:24:50.153Z,79.10
2019-02-19T00:27:31.195Z,78.20
2019-02-19T00:30:19.002Z,77.40
2019-02-19T00:32:59.125Z,76.60
2019-02-19T00:35:46.898Z,77.50
2019-02-19T00:38:27.619Z,78.40
2019-02-19T00:41:15.021Z,78.40
2019-02-19T00:43:55.416Z,80.00
2019-02-19T00:46:42.814Z,80.20
2019-02-19T00:49:23.497Z,79.70
2019-02-19T00:52:03.926Z,79.50
2019-02-19T00:54:51.529Z,78.50
2019-02-19T00:57:20.522Z,78.00
2019-02-19T01:00:09.093Z,77.30
2019-02-19T01:02:37.094Z,77.40
2019-02-19T01:05:17.640Z,77.50
2019-02-19T01:08:05.205Z,78.10
2019-02-19T01:10:45.514Z,76.10
2019-02-19T01:13:32.862Z,76.30
2019-02-19T01:16:13.135Z,77.40
2019-02-19T01:19:00.525Z,77.40
2019-02-19T01:21:40.747Z,77.80
2019-02-19T01:24:28.127Z,77.80
2019-02-19T01:27:08.182Z,77.30
2019-02-19T01:29:55.548Z,78.00
2019-02-19T01:32:36.215Z,77.70
2019-02-19T01:35:05.287Z,77.90
2019-02-19T01:37:45.383Z,77.30
2019-02-19T01:40:13.323Z,77.30
2019-02-19T01:42:53.479Z,76.70
2019-02-19T01:45:40.830Z,76.90
2019-02-19T01:48:08.756Z,77.60
2019-02-19T01:50:56.088Z,77.20
2019-02-19T01:53:36.569Z,77.30
2019-02-19T01:56:16.933Z,77.90
2019-02-19T01:59:04.298Z,75.70
2019-02-19T02:01:44.281Z,75.50
2019-02-19T02:04:31.635Z,75.90
2019-02-19T02:07:12.359Z,76.60
2019-02-19T02:09:59.687Z,77.50
2019-02-19T02:12:27.664Z,77.80
2019-02-19T02:14:55.635Z,77.50
2019-02-19T02:17:23.652Z,77.00
2019-02-19T02:20:11.055Z,77.50
2019-02-19T02:22:51.752Z,78.10
2019-02-19T02:25:39.130Z,78.60
2019-02-19T02:28:07.074Z,79.50
2019-02-19T02:30:54.452Z,80.60
2019-02-19T02:33:34.645Z,81.40
2019-02-19T02:36:22.116Z,81.40
2019-02-19T02:39:03.022Z,80.90
2019-02-19T02:41:31.263Z,79.40
2019-02-19T02:43:59.181Z,78.10
2019-02-19T02:46:46.526Z,76.80
2019-02-19T02:49:27.364Z,74.20
2019-02-19T02:52:14.708Z,73.00
2019-02-19T02:54:42.630Z,70.70
2019-02-19T02:57:10.551Z,69.00
2019-02-19T02:59:38.434Z,67.40
2019-02-19T03:02:25.740Z,65.80
2019-02-19T03:05:08.576Z,64.10
2019-02-19T03:07:59.511Z,64.50
2019-02-19T03:10:39.682Z,63.40
2019-02-19T03:13:27.003Z,62.90
2019-02-19T03:16:07.888Z,62.40
2019-02-19T03:18:55.241Z,61.50
2019-02-19T03:21:23.150Z,61.40
2019-02-19T03:23:51.030Z,60.80
2019-02-19T03:26:38.380Z,60.00
2019-02-19T03:29:06.236Z,59.70
2019-02-19T03:31:53.583Z,59.40
2019-02-19T03:34:34.493Z,59.20
2019-02-19T03:37:02.358Z,58.90
2019-02-19T03:39:43.227Z,58.70
2019-02-19T03:42:23.171Z,58.70
2019-02-19T03:47:51.402Z,58.90
2019-02-19T03:50:38.788Z,58.40
2019-02-19T03:53:19.678Z,58.20
2019-02-19T03:56:07.049Z,58.10
2019-02-19T03:58:47.782Z,57.20
2019-02-19T04:01:35.312Z,57.40
2019-02-19T04:04:15.782Z,57.40
2019-02-19T04:07:03.166Z,56.80
2019-02-19T04:09:44.126Z,57.20
2019-02-19T04:12:31.482Z,57.10
2019-02-19T04:15:12.348Z,57.10
2019-02-19T04:17:59.687Z,57.10
2019-02-19T04:20:27.564Z,57.40
2019-02-19T04:23:15.117Z,57.30
2019-02-19T04:25:56.754Z,57.30
2019-02-19T04:28:24.748Z,57.30
2019-02-19T04:30:52.631Z,57.30
2019-02-19T04:33:34.813Z,57.50
2019-02-19T04:36:22.306Z,57.20
2019-02-19T04:39:03.928Z,57.80
2019-02-19T04:41:51.307Z,57.30
2019-02-19T04:44:34.016Z,57.60
2019-02-19T04:47:21.413Z,57.60
2019-02-19T04:50:01.680Z,57.60
2019-02-19T04:52:49.049Z,57.40
2019-02-19T04:55:17.148Z,57.30
2019-02-19T04:58:04.558Z,57.40
2019-02-19T05:00:32.569Z,57.10
2019-02-19T05:03:00.437Z,56.90
2019-02-19T05:05:41.813Z,57.00
2019-02-19T05:08:29.146Z,57.00
2019-02-19T05:10:57.107Z,56.90
2019-02-19T05:13:37.902Z,57.10
2019-02-19T05:16:18.382Z,56.90
2019-02-19T05:19:05.728Z,56.80
2019-02-19T05:21:46.589Z,57.00
2019-02-19T05:24:34.038Z,57.10
2019-02-19T05:27:01.978Z,57.10
2019-02-19T05:29:44.071Z,57.00
2019-02-19T05:32:31.613Z,56.90
2019-02-19T05:35:12.171Z,56.70
2019-02-19T05:37:59.581Z,56.60
2019-02-19T05:40:40.409Z,56.70
2019-02-19T05:43:27.791Z,56.60
2019-02-19T05:45:55.729Z,56.30
2019-02-19T05:48:25.474Z,56.30
2019-02-19T05:50:53.352Z,56.10
2019-02-19T05:53:40.880Z,56.10
2019-02-19T05:56:19.445Z,56.00
2019-02-19T05:59:06.929Z,56.00
2019-02-19T06:01:47.098Z,56.10
2019-02-19T06:04:16.168Z,56.00
2019-02-19T06:06:57.254Z,56.00
2019-02-19T06:09:25.157Z,55.70
2019-02-19T06:12:06.608Z,56.30
2019-02-19T06:14:34.504Z,56.50
2019-02-19T06:17:02.387Z,56.60
2019-02-19T06:19:30.318Z,56.70
2019-02-19T06:22:10.667Z,56.80
2019-02-19T06:24:58.043Z,57.00
2019-02-19T06:27:38.839Z,57.10
2019-02-19T06:30:18.926Z,56.50
2019-02-19T06:33:00.770Z,56.70
2019-02-19T06:35:39.558Z,56.60
2019-02-19T06:38:26.941Z,56.70
2019-02-19T06:41:07.078Z,56.60
2019-02-19T06:43:54.505Z,56.70
2019-02-19T06:46:35.675Z,56.70
2019-02-19T06:49:23.045Z,56.40
2019-02-19T06:52:03.939Z,57.00
2019-02-19T06:54:51.435Z,57.00
2019-02-19T06:57:31.747Z,57.00
2019-02-19T06:59:59.746Z,56.70
2019-02-19T07:05:47.535Z,57.20
2019-02-19T07:08:34.920Z,56.90
2019-02-19T07:11:15.129Z,56.90
2019-02-19T07:14:02.682Z,57.30
2019-02-19T07:16:43.689Z,56.60
2019-02-19T07:19:31.040Z,57.00
2019-02-19T07:22:11.174Z,56.90
2019-02-19T07:24:58.509Z,56.70
2019-02-19T07:27:39.404Z,56.50
2019-02-19T07:30:07.617Z,56.80
2019-02-19T07:32:35.825Z,56.50
2019-02-19T07:35:23.231Z,56.40
2019-02-19T07:38:04.091Z,56.40
2019-02-19T07:40:51.537Z,56.20
2019-02-19T07:43:32.119Z,56.80
2019-02-19T07:46:19.535Z,56.80
2019-02-19T07:49:00.518Z,57.10
2019-02-19T07:51:28.590Z,57.10
2019-02-19T07:53:56.542Z,57.30
2019-02-19T07:56:24.465Z,57.30
2019-02-19T07:58:52.424Z,57.60
2019-02-19T08:01:33.009Z,57.80
2019-02-19T08:04:13.270Z,58.00
2019-02-19T08:06:41.118Z,57.90
2019-02-19T08:09:11.963Z,57.90
2019-02-19T08:11:40.407Z,58.20
2019-02-19T08:14:21.881Z,58.50
2019-02-19T08:17:09.315Z,59.20
2019-02-19T08:19:37.180Z,60.60
2019-02-19T08:22:24.573Z,63.00
2019-02-19T08:24:52.669Z,64.20
2019-02-19T08:27:20.703Z,65.00
2019-02-19T08:29:48.589Z,66.30
2019-02-19T08:32:16.668Z,67.60
2019-02-19T08:34:46.736Z,68.90
2019-02-19T08:37:14.696Z,69.50
2019-02-19T08:39:55.434Z,70.30
2019-02-19T08:42:43.640Z,70.60
2019-02-19T08:45:24.453Z,70.90
2019-02-19T08:48:11.937Z,73.60
2019-02-19T08:50:52.881Z,73.10
2019-02-19T08:53:40.322Z,74.70
2019-02-19T08:56:20.951Z,74.80
2019-02-19T08:59:02.232Z,77.50
2019-02-19T09:01:30.218Z,77.20
2019-02-19T09:03:58.186Z,77.50
2019-02-19T09:06:45.850Z,77.50
2019-02-19T09:09:26.062Z,79.30
2019-02-19T09:12:16.586Z,79.70
2019-02-19T09:15:01.012Z,82.10
2019-02-19T09:17:28.956Z,81.80
2019-02-19T09:19:56.910Z,82.70
2019-02-19T09:22:24.911Z,83.50
2019-02-19T09:24:52.861Z,84.10
2019-02-19T09:27:35.955Z,84.90
2019-02-19T09:30:07.440Z,83.90
2019-02-19T09:32:35.481Z,87.00
2019-02-19T09:35:04.337Z,86.90
2019-02-19T09:37:44.600Z,87.50
2019-02-19T09:40:12.533Z,88.90
2019-02-19T09:42:40.485Z,89.40
2019-02-19T09:45:27.885Z,89.20
2019-02-19T09:48:01.149Z,89.80
2019-02-19T09:50:45.253Z,90.10
2019-02-19T09:53:13.238Z,90.30
2019-02-19T09:56:00.669Z,90.40
2019-02-19T09:58:28.998Z,90.30
2019-02-19T10:01:16.658Z,90.80
2019-02-19T10:03:57.360Z,90.70
2019-02-19T10:06:25.390Z,90.70
2019-02-19T10:08:53.470Z,91.10
2019-02-19T10:11:40.928Z,91.40
2019-02-19T10:14:21.377Z,91.50
2019-02-19T10:17:08.997Z,91.80
2019-02-19T10:19:53.036Z,91.20
2019-02-19T10:22:40.386Z,91.20
2019-02-19T10:25:21.054Z,91.30
2019-02-19T10:28:08.564Z,91.30
2019-02-19T10:30:49.332Z,91.50
2019-02-19T10:33:18.190Z,91.40
2019-02-19T10:35:46.147Z,91.20
2019-02-19T10:38:14.152Z,91.50
2019-02-19T10:40:54.625Z,90.30
2019-02-19T10:43:42.417Z,90.30
2019-02-19T10:46:22.863Z,87.70
2019-02-19T10:49:10.339Z,87.70
2019-02-19T10:51:50.946Z,86.90
2019-02-19T10:54:38.412Z,86.00
2019-02-19T10:57:18.905Z,87.00
2019-02-19T10:59:58.998Z,86.70
2019-02-19T11:02:46.618Z,88.10
2019-02-19T11:05:27.387Z,88.60
2019-02-19T11:08:14.861Z,87.50
2019-02-19T11:10:42.993Z,87.20
2019-02-19T11:13:11.881Z,86.70
2019-02-19T11:16:03.312Z,87.70
2019-02-19T11:18:51.098Z,88.90
2019-02-19T11:21:19.998Z,86.60
2019-02-19T11:24:00.239Z,86.50
2019-02-19T11:26:29.075Z,85.90
2019-02-19T11:29:11.212Z,85.50
2019-02-19T11:31:58.723Z,85.40
2019-02-19T11:34:39.393Z,85.60
2019-02-19T11:37:26.851Z,84.90
2019-02-19T11:40:07.935Z,85.70
2019-02-19T11:42:55.583Z,85.80
2019-02-19T11:45:38.393Z,84.50
2019-02-19T11:48:26.031Z,84.30
2019-02-19T11:51:06.483Z,85.60
2019-02-19T11:53:54.911Z,86.50
2019-02-19T11:56:35.675Z,87.50
2019-02-19T11:59:23.109Z,86.80
2019-02-19T12:02:08.133Z,87.50
2019-02-19T12:04:51.632Z,84.30
2019-02-19T12:07:32.505Z,83.70
2019-02-19T12:10:12.774Z,83.00
2019-02-19T12:12:52.899Z,81.60
2019-02-19T12:15:40.323Z,76.30
2019-02-19T12:18:21.350Z,77.40
2019-02-19T12:21:10.620Z,77.30
2019-02-19T12:23:58.442Z,77.30
2019-02-19T12:26:46.187Z,76.80
2019-02-19T12:29:26.681Z,76.80
2019-02-19T12:32:14.288Z,75.20
2019-02-19T12:34:55.021Z,73.60
2019-02-19T12:37:42.550Z,72.20
2019-02-19T12:40:23.266Z,72.70
2019-02-19T12:43:10.702Z,72.80
2019-02-19T12:45:51.482Z,71.50
2019-02-19T12:48:38.911Z,69.00
2019-02-19T12:51:26.265Z,68.90
2019-02-19T12:54:09.266Z,68.50
2019-02-19T12:56:50.129Z,67.90
2019-02-19T12:59:37.562Z,67.10
2019-02-19T13:02:19.656Z,68.80
2019-02-19T13:05:03.673Z,67.60
2019-02-19T13:07:51.023Z,67.80
2019-02-19T13:10:31.499Z,67.60
2019-02-19T13:13:11.584Z,67.00
2019-02-19T13:15:51.915Z,65.90
2019-02-19T13:18:39.545Z,65.60
2019-02-19T13:21:19.854Z,64.80
2019-02-19T13:24:07.294Z,61.90
2019-02-19T13:26:48.369Z,61.30
2019-02-19T13:29:35.838Z,61.70
2019-02-19T13:32:16.471Z,62.00
2019-02-19T13:34:44.358Z,61.00
2019-02-19T13:37:12.299Z,61.30
2019-02-19T13:39:59.674Z,59.90
2019-02-19T13:42:40.998Z,59.00
2019-02-19T13:45:11.095Z,58.30
2019-02-19T13:48:05.650Z,59.20
2019-02-19T13:50:41.652Z,58.90
2019-02-19T13:53:48.633Z,59.10
2019-02-19T13:56:28.907Z,57.40
2019-02-19T13:59:16.261Z,57.70
2019-02-19T14:01:57.192Z,55.80
2019-02-19T14:04:44.590Z,54.90
2019-02-19T14:07:24.776Z,54.00
2019-02-19T14:10:12.345Z,52.30
2019-02-19T14:12:40.391Z,52.40
2019-02-19T14:18:52.602Z,49.70
2019-02-19T14:21:55.868Z,49.70
2019-02-19T14:25:02.819Z,48.60
2019-02-19T14:28:04.365Z,46.90
2019-02-19T14:31:11.345Z,46.80
2019-02-19T14:34:11.000Z,45.30
2019-02-19T14:37:12.778Z,46.00
2019-02-19T14:40:20.193Z,45.80
2019-02-19T14:43:23.657Z,45.60
2019-02-19T14:46:30.878Z,44.30
2019-02-19T14:49:37.088Z,44.20
2019-02-19T14:52:35.976Z,43.10
2019-02-19T14:55:36.974Z,43.20
2019-02-19T14:58:44.721Z,44.80
2019-02-19T15:01:32.612Z,43.90
2019-02-19T15:04:39.596Z,43.90
2019-02-19T15:07:39.669Z,44.30
2019-02-19T15:10:46.671Z,42.70
2019-02-19T15:13:50.235Z,44.50
2019-02-19T15:16:57.224Z,44.30
2019-02-19T15:19:49.099Z,44.10
2019-02-19T15:22:46.885Z,44.80
2019-02-19T15:25:47.244Z,45.30
2019-02-19T15:28:39.266Z,44.20
2019-02-19T15:31:39.529Z,43.70
2019-02-19T15:34:46.536Z,42.70
2019-02-19T15:37:46.727Z,42.60
2019-02-19T15:40:53.711Z,42.60
2019-02-19T15:43:44.551Z,40.50
2019-02-19T15:46:51.567Z,38.80
2019-02-19T15:49:51.624Z,37.70
2019-02-19T15:52:58.667Z,36.80
2019-02-19T15:55:49.973Z,37.00
2019-02-19T15:58:37.614Z,36.30
2019-02-19T16:01:37.927Z,36.50
2019-02-19T16:04:39.132Z,36.10
2019-02-19T16:07:42.415Z,37.40
2019-02-19T16:10:49.726Z,38.10
2019-02-19T16:13:36.857Z,39.90
2019-02-19T16:16:43.989Z,40.60
2019-02-19T16:19:44.690Z,41.80
2019-02-19T16:22:39.617Z,43.00
2019-02-19T16:25:40.080Z,43.10
2019-02-19T16:28:47.281Z,44.10
2019-02-19T16:31:47.468Z,43.70
2019-02-19T16:34:54.578Z,44.00
2019-02-19T16:37:41.559Z,43.80
2019-02-19T16:40:46.876Z,43.90
2019-02-19T16:43:46.559Z,43.00
2019-02-19T16:46:53.613Z,43.40
2019-02-19T16:49:53.724Z,44.20
2019-02-19T16:53:00.871Z,44.10
2019-02-19T16:56:06.630Z,44.80
2019-02-19T16:59:07.451Z,45.10
2019-02-19T17:02:11.877Z,45.80
2019-02-19T17:04:59.623Z,46.20
2019-02-19T17:07:42.163Z,46.70
2019-02-19T17:10:36.151Z,47.00
2019-02-19T17:13:36.584Z,48.60
2019-02-19T17:16:43.674Z,48.70
2019-02-19T17:19:51.090Z,48.70
2019-02-19T17:22:58.357Z,48.80
2019-02-19T17:25:53.268Z,48.70
2019-02-19T17:29:00.273Z,49.00
2019-02-19T17:31:50.420Z,49.90
2019-02-19T17:34:57.470Z,49.70
2019-02-19T17:38:01.233Z,50.60
2019-02-19T17:41:02.602Z,50.80
2019-02-19T17:43:52.912Z,50.70
2019-02-19T17:47:00.243Z,51.80
2019-02-19T17:49:49.609Z,51.80
2019-02-19T17:52:57.399Z,52.50
2019-02-19T17:55:45.197Z,53.30
2019-02-19T17:58:47.641Z,53.30
2019-02-19T18:01:55.051Z,53.50
2019-02-19T18:04:55.931Z,53.90
2019-02-19T18:07:44.118Z,55.20
2019-02-19T18:10:51.623Z,54.80
2019-02-19T18:13:39.288Z,55.40
2019-02-19T18:19:34.720Z,55.90
2019-02-19T18:22:02.797Z,56.00
2019-02-19T18:24:30.838Z,56.00
2019-02-19T18:26:58.839Z,56.20
2019-02-19T18:29:46.389Z,56.40
2019-02-19T18:32:14.399Z,56.40
2019-02-19T18:34:42.745Z,56.70
2019-02-19T18:37:24.473Z,56.90
2019-02-19T18:40:12.348Z,56.90
2019-02-19T18:42:53.082Z,57.00
2019-02-19T18:45:40.617Z,56.90
2019-02-19T18:48:21.525Z,56.20
2019-02-19T18:50:58.047Z,57.10
2019-02-19T18:53:32.399Z,56.80
2019-02-19T18:56:00.502Z,56.80
2019-02-19T18:58:28.589Z,57.20
2019-02-19T19:01:17.510Z,57.20
2019-02-19T19:03:58.406Z,57.50
2019-02-19T19:06:46.063Z,57.90
2019-02-19T19:09:26.455Z,57.00
2019-02-19T19:12:14.125Z,57.30
2019-02-19T19:14:55.044Z,57.00
2019-02-19T19:17:42.840Z,57.50
2019-02-19T19:20:23.743Z,57.50
2019-02-19T19:23:11.506Z,57.50
2019-02-19T19:25:52.884Z,57.90
2019-02-19T19:28:40.772Z,59.30
2019-02-19T19:31:22.942Z,58.10
2019-02-19T19:34:10.610Z,57.90
2019-02-19T19:36:50.733Z,58.10
2019-02-19T19:39:38.291Z,57.90
2019-02-19T19:42:06.483Z,58.10
2019-02-19T19:44:54.387Z,58.00
2019-02-19T19:47:35.646Z,57.20
2019-02-19T19:50:17.904Z,58.20
2019-02-19T19:52:58.963Z,58.80
2019-02-19T19:55:39.845Z,58.20
2019-02-19T19:58:27.445Z,57.00
2019-02-19T20:01:08.392Z,58.40
2019-02-19T20:03:56.081Z,59.00
2019-02-19T20:06:36.881Z,58.30
2019-02-19T20:09:06.785Z,58.40
2019-02-19T20:11:49.112Z,58.40
2019-02-19T20:14:36.824Z,58.30
2019-02-19T20:17:16.992Z,58.40
2019-02-19T20:19:45.119Z,59.00
2019-02-19T20:22:32.807Z,58.30
2019-02-19T20:25:13.122Z,59.00
2019-02-19T20:27:41.292Z,58.50
2019-02-19T20:30:09.991Z,58.60
2019-02-19T20:32:52.567Z,58.70
2019-02-19T20:35:20.770Z,59.00
2019-02-19T20:37:54.159Z,59.10
2019-02-19T20:40:40.856Z,59.10
2019-02-19T20:43:10.046Z,59.00
2019-02-19T20:45:51.821Z,59.20
2019-02-19T20:48:39.485Z,60.00
2019-02-19T20:51:21.518Z,60.00
2019-02-19T20:53:50.776Z,60.40
2019-02-19T20:56:31.692Z,60.70
2019-02-19T20:59:19.270Z,60.70
2019-02-19T21:04:40.518Z,62.00
2019-02-19T21:07:08.836Z,62.20
2019-02-19T21:09:53.561Z,63.00
2019-02-19T21:12:41.444Z,63.50
2019-02-19T21:15:23.916Z,64.80
2019-02-19T21:18:13.629Z,64.90
2019-02-19T21:21:14.172Z,65.00
2019-02-19T21:24:01.611Z,65.80
2019-02-19T21:26:44.578Z,65.30
2019-02-19T21:29:33.121Z,65.90
2019-02-19T21:32:13.417Z,65.70
2019-02-19T21:35:01.004Z,66.50
2019-02-19T21:37:29.355Z,66.40
2019-02-19T21:39:57.506Z,66.00
2019-02-19T21:42:38.273Z,66.60
2019-02-19T21:45:26.186Z,66.60
2019-02-19T21:47:54.838Z,66.50
2019-02-19T21:50:42.399Z,67.00
2019-02-19T21:53:10.565Z,66.20
2019-02-19T21:55:51.431Z,67.30
2019-02-19T21:58:39.466Z,66.90
2019-02-19T22:01:20.885Z,67.60
2019-02-19T22:03:49.001Z,67.00
2019-02-19T22:06:29.363Z,67.10
2019-02-19T22:09:10.424Z,68.60
2019-02-19T22:11:59.816Z,66.50
2019-02-19T22:14:40.501Z,67.50
2019-02-19T22:17:09.821Z,67.90
2019-02-19T22:20:02.537Z,67.80
2019-02-19T22:22:32.298Z,68.90
2019-02-19T22:25:00.353Z,68.30
2019-02-19T22:27:47.895Z,68.60
2019-02-19T22:30:28.785Z,68.80
2019-02-19T22:33:16.349Z,69.10
2019-02-19T22:35:59.495Z,70.20
2019-02-19T22:38:27.448Z,69.20
2019-02-19T22:41:09.372Z,69.70
2019-02-19T22:43:37.345Z,70.30
2019-02-19T22:46:05.376Z,70.80
2019-02-19T22:48:33.455Z,70.60
2019-02-19T22:51:01.798Z,70.80
2019-02-19T22:53:49.465Z,71.60
2019-02-19T22:56:37.153Z,72.00
2019-02-19T22:59:18.194Z,72.40
2019-02-19T23:02:12.767Z,73.00
2019-02-19T23:04:40.803Z,72.50
2019-02-19T23:07:08.858Z,72.40
2019-02-19T23:09:36.779Z,72.70
2019-02-19T23:12:24.246Z,73.50
2019-02-19T23:15:05.288Z,74.80
2019-02-19T23:17:52.804Z,74.90
2019-02-19T23:20:33.624Z,75.60
2019-02-19T23:23:02.616Z,76.00
2019-02-19T23:25:43.904Z,75.80
2019-02-19T23:28:31.420Z,75.30
2019-02-19T23:31:11.736Z,75.70
2019-02-19T23:33:59.271Z,75.30
2019-02-19T23:36:48.274Z,75.30
2019-02-19T23:39:43.438Z,76.20
2019-02-19T23:42:38.072Z,75.40
2019-02-19T23:45:25.473Z,74.50
2019-02-19T23:48:05.577Z,76.30
2019-02-19T23:50:33.541Z,76.80
2019-02-19T23:53:01.566Z,77.20
2019-02-19T23:55:43.862Z,77.80
2019-02-19T23:58:26.827Z,78.20
